createdAt,value
2018-09-19T00:00:59.136Z,81.89
2018-09-19T00:03:27.833Z,81.79
2018-09-19T00:05:56.460Z,81.47
2018-09-19T00:08:25.048Z,81.95
2018-09-19T00:10:53.702Z,81.81
2018-09-19T00:13:22.329Z,81.89
2018-09-19T00:15:50.956Z,81.76
2018-09-19T00:18:19.575Z,81.80
2018-09-19T00:20:48.230Z,81.27
2018-09-19T00:23:16.870Z,81.62
2018-09-19T00:25:45.509Z,81.91
2018-09-19T00:28:14.300Z,81.86
2018-09-19T00:30:42.915Z,81.70
2018-09-19T00:33:11.527Z,81.74
2018-09-19T00:35:40.161Z,82.18
2018-09-19T00:38:08.795Z,82.28
2018-09-19T00:40:37.424Z,82.16
2018-09-19T00:43:06.060Z,81.89
2018-09-19T00:45:34.710Z,82.02
2018-09-19T00:48:04.403Z,82.15
2018-09-19T00:50:33.108Z,81.67
2018-09-19T00:53:01.780Z,82.09
2018-09-19T00:55:30.389Z,82.40
2018-09-19T00:57:59.324Z,82.03
2018-09-19T01:00:28.207Z,82.24
2018-09-19T01:02:56.841Z,82.18
2018-09-19T01:05:25.467Z,81.70
2018-09-19T01:07:54.086Z,81.99
2018-09-19T01:10:22.739Z,81.52
2018-09-19T01:12:51.383Z,81.46
2018-09-19T01:15:19.991Z,81.54
2018-09-19T01:17:48.616Z,82.15
2018-09-19T01:20:17.256Z,81.91
2018-09-19T01:22:45.871Z,81.64
2018-09-19T01:25:14.529Z,80.72
2018-09-19T01:27:43.162Z,80.77
2018-09-19T01:30:11.911Z,80.84
2018-09-19T01:32:40.564Z,80.90
2018-09-19T01:35:09.231Z,80.90
2018-09-19T01:37:37.878Z,80.91
2018-09-19T01:40:06.524Z,80.82
2018-09-19T01:42:35.179Z,80.57
2018-09-19T01:45:03.817Z,81.08
2018-09-19T01:47:32.706Z,80.79
2018-09-19T01:50:01.301Z,81.18
2018-09-19T01:52:29.956Z,82.00
2018-09-19T01:54:58.586Z,82.60
2018-09-19T01:57:27.223Z,82.51
2018-09-19T01:59:55.859Z,83.23
2018-09-19T02:02:24.514Z,83.24
2018-09-19T02:04:53.359Z,83.93
2018-09-19T02:07:21.997Z,82.91
2018-09-19T02:09:50.646Z,81.78
2018-09-19T02:12:19.282Z,81.31
2018-09-19T02:14:47.903Z,81.99
2018-09-19T02:17:16.620Z,82.47
2018-09-19T02:19:45.243Z,82.26
2018-09-19T02:22:13.893Z,81.80
2018-09-19T02:24:42.528Z,83.09
2018-09-19T02:27:11.141Z,82.74
2018-09-19T02:29:39.888Z,82.81
2018-09-19T02:32:08.502Z,82.64
2018-09-19T02:34:37.117Z,83.32
2018-09-19T02:37:05.702Z,83.76
2018-09-19T02:39:34.347Z,83.21
2018-09-19T02:42:03.040Z,83.18
2018-09-19T02:44:31.647Z,83.92
2018-09-19T02:47:00.275Z,84.41
2018-09-19T02:49:28.945Z,84.91
2018-09-19T02:51:58.289Z,83.79
2018-09-19T02:54:28.240Z,84.55
2018-09-19T02:56:56.886Z,84.90
2018-09-19T02:59:25.676Z,84.72
2018-09-19T03:01:54.400Z,84.97
2018-09-19T03:04:23.128Z,84.73
2018-09-19T03:06:51.767Z,83.62
2018-09-19T03:09:21.362Z,83.76
2018-09-19T03:11:49.995Z,83.63
2018-09-19T03:14:18.622Z,83.79
2018-09-19T03:16:47.268Z,83.95
2018-09-19T03:19:15.909Z,84.19
2018-09-19T03:21:44.539Z,84.74
2018-09-19T03:24:13.189Z,84.25
2018-09-19T03:26:41.791Z,84.92
2018-09-19T03:29:10.384Z,85.00
2018-09-19T03:31:39.007Z,85.37
2018-09-19T03:34:07.613Z,85.05
2018-09-19T03:36:36.242Z,85.31
2018-09-19T03:39:07.614Z,85.40
2018-09-19T03:41:36.240Z,86.14
2018-09-19T03:44:05.068Z,86.28
2018-09-19T03:46:33.695Z,86.74
2018-09-19T03:49:02.356Z,86.53
2018-09-19T03:51:30.985Z,86.77
2018-09-19T03:53:59.641Z,86.56
2018-09-19T03:56:28.271Z,86.72
2018-09-19T03:58:56.890Z,86.48
2018-09-19T04:01:25.538Z,86.87
2018-09-19T04:03:54.179Z,86.94
2018-09-19T04:06:22.835Z,86.52
2018-09-19T04:08:51.448Z,85.86
2018-09-19T04:11:20.096Z,86.21
2018-09-19T04:13:48.727Z,85.76
2018-09-19T04:16:17.410Z,86.49
2018-09-19T04:18:46.078Z,85.76
2018-09-19T04:21:14.943Z,85.14
2018-09-19T04:23:43.787Z,85.68
2018-09-19T04:26:12.417Z,85.49
2018-09-19T04:28:41.441Z,86.11
2018-09-19T04:31:10.085Z,86.03
2018-09-19T04:33:38.723Z,86.39
2018-09-19T04:36:07.353Z,86.78
2018-09-19T04:38:36.011Z,86.86
2018-09-19T04:41:04.754Z,86.33
2018-09-19T04:43:33.460Z,85.92
2018-09-19T04:46:02.488Z,86.32
2018-09-19T04:48:37.888Z,86.44
2018-09-19T04:51:07.316Z,86.91
2018-09-19T04:53:35.962Z,87.51
2018-09-19T04:56:04.616Z,87.27
2018-09-19T04:58:33.310Z,86.04
2018-09-19T05:01:01.986Z,86.08
2018-09-19T05:03:30.627Z,86.60
2018-09-19T05:05:59.503Z,86.72
2018-09-19T05:08:28.138Z,87.08
2018-09-19T05:10:56.835Z,86.69
2018-09-19T05:13:25.575Z,86.08
2018-09-19T05:15:54.191Z,86.27
2018-09-19T05:18:22.952Z,85.59
2018-09-19T05:20:51.647Z,85.02
2018-09-19T05:23:20.322Z,85.00
2018-09-19T05:25:48.970Z,85.44
2018-09-19T05:28:18.201Z,85.61
2018-09-19T05:30:46.851Z,85.21
2018-09-19T05:33:15.508Z,85.42
2018-09-19T05:35:44.328Z,84.78
2018-09-19T05:38:13.163Z,83.98
2018-09-19T05:40:41.900Z,83.82
2018-09-19T05:43:10.830Z,84.01
2018-09-19T05:45:39.591Z,84.08
2018-09-19T05:48:08.325Z,83.75
2018-09-19T05:50:37.149Z,83.69
2018-09-19T05:53:05.782Z,83.98
2018-09-19T05:55:35.326Z,84.04
2018-09-19T05:58:04.009Z,82.91
2018-09-19T06:00:32.664Z,83.50
2018-09-19T06:03:01.426Z,83.54
2018-09-19T06:05:30.068Z,83.59
2018-09-19T06:07:58.735Z,83.03
2018-09-19T06:10:29.264Z,82.76
2018-09-19T06:12:58.000Z,82.71
2018-09-19T06:15:26.650Z,81.70
2018-09-19T06:17:55.288Z,79.41
2018-09-19T06:20:24.179Z,79.11
2018-09-19T06:22:52.807Z,79.45
2018-09-19T06:25:21.576Z,78.33
2018-09-19T06:27:50.195Z,77.36
2018-09-19T06:30:18.892Z,77.35
2018-09-19T06:32:47.565Z,77.55
2018-09-19T06:35:16.208Z,77.25
2018-09-19T06:37:44.827Z,75.93
2018-09-19T06:40:13.618Z,74.71
2018-09-19T06:42:42.240Z,74.58
2018-09-19T06:45:10.869Z,75.27
2018-09-19T06:47:39.642Z,74.20
2018-09-19T06:50:09.036Z,74.24
2018-09-19T06:52:38.323Z,73.15
2018-09-19T06:55:06.946Z,73.57
2018-09-19T06:57:35.615Z,74.53
2018-09-19T07:00:04.915Z,72.74
2018-09-19T07:02:33.750Z,72.40
2018-09-19T07:05:02.392Z,74.01
2018-09-19T07:07:32.339Z,72.37
2018-09-19T07:10:00.948Z,75.62
2018-09-19T07:12:29.631Z,74.42
2018-09-19T07:14:58.291Z,72.88
2018-09-19T07:17:26.966Z,73.12
2018-09-19T07:19:55.658Z,73.22
2018-09-19T07:22:24.938Z,72.85
2018-09-19T07:24:53.600Z,70.98
2018-09-19T07:27:25.507Z,68.88
2018-09-19T07:29:55.185Z,68.17
2018-09-19T07:32:23.864Z,69.22
2018-09-19T07:34:52.528Z,66.51
2018-09-19T07:37:22.096Z,66.90
2018-09-19T07:39:51.458Z,68.12
2018-09-19T07:42:20.160Z,68.88
2018-09-19T07:44:50.361Z,65.68
2018-09-19T07:47:19.013Z,67.08
2018-09-19T07:49:49.330Z,64.13
2018-09-19T07:52:17.983Z,63.55
2018-09-19T07:54:48.154Z,65.42
2018-09-19T07:57:17.456Z,63.82
2018-09-19T07:59:49.892Z,62.88
2018-09-19T08:02:19.008Z,61.46
2018-09-19T08:04:49.196Z,60.38
2018-09-19T08:07:18.048Z,60.65
2018-09-19T08:09:48.212Z,60.15
2018-09-19T08:12:16.945Z,61.10
2018-09-19T08:14:46.042Z,60.10
2018-09-19T08:17:15.572Z,58.63
2018-09-19T08:19:44.277Z,59.90
2018-09-19T08:22:12.960Z,59.22
2018-09-19T08:24:42.407Z,59.49
2018-09-19T08:27:11.046Z,58.76
2018-09-19T08:29:39.683Z,58.72
2018-09-19T08:32:08.486Z,57.46
2018-09-19T08:34:37.945Z,55.84
2018-09-19T08:37:06.624Z,57.62
2018-09-19T08:39:35.710Z,57.61
2018-09-19T08:42:04.439Z,57.02
2018-09-19T08:44:33.126Z,56.86
2018-09-19T08:47:01.836Z,56.24
2018-09-19T08:49:31.634Z,55.59
2018-09-19T08:52:00.386Z,55.28
2018-09-19T08:54:29.082Z,54.21
2018-09-19T08:56:59.251Z,53.96
2018-09-19T08:59:27.881Z,54.67
2018-09-19T09:01:56.972Z,55.70
2018-09-19T09:04:25.713Z,53.51
2018-09-19T09:06:55.935Z,53.33
2018-09-19T09:09:24.600Z,53.09
2018-09-19T09:11:54.822Z,52.70
2018-09-19T09:14:23.638Z,54.89
2018-09-19T09:16:52.598Z,53.35
2018-09-19T09:19:22.172Z,51.48
2018-09-19T09:21:50.836Z,50.31
2018-09-19T09:24:20.099Z,52.75
2018-09-19T09:26:49.203Z,50.32
2018-09-19T09:29:18.566Z,49.62
2018-09-19T09:31:47.223Z,49.51
2018-09-19T09:34:15.951Z,51.88
2018-09-19T09:36:44.655Z,51.58
2018-09-19T09:39:13.401Z,49.96
2018-09-19T09:41:42.622Z,48.67
2018-09-19T09:44:11.256Z,48.80
2018-09-19T09:46:40.297Z,47.25
2018-09-19T09:49:10.561Z,47.27
2018-09-19T09:51:39.215Z,45.18
2018-09-19T09:54:07.865Z,43.99
2018-09-19T09:56:37.234Z,45.27
2018-09-19T09:59:06.092Z,45.24
2018-09-19T10:01:35.123Z,46.72
2018-09-19T10:04:03.839Z,47.97
2018-09-19T10:06:32.558Z,46.23
2018-09-19T10:09:03.076Z,45.38
2018-09-19T10:11:31.835Z,46.47
2018-09-19T10:14:02.527Z,44.36
2018-09-19T10:16:31.231Z,46.14
2018-09-19T10:19:01.676Z,44.36
2018-09-19T10:21:30.800Z,43.87
2018-09-19T10:23:59.437Z,44.81
2018-09-19T10:26:28.043Z,42.56
2018-09-19T10:28:56.636Z,42.07
2018-09-19T10:31:26.291Z,42.01
2018-09-19T10:33:55.973Z,41.01
2018-09-19T10:36:25.194Z,41.11
2018-09-19T10:38:54.040Z,40.60
2018-09-19T10:41:23.956Z,41.41
2018-09-19T10:43:53.357Z,41.93
2018-09-19T10:46:22.019Z,43.34
2018-09-19T10:48:50.694Z,41.22
2018-09-19T10:51:19.791Z,41.63
2018-09-19T10:53:48.462Z,42.66
2018-09-19T10:56:17.126Z,41.33
2018-09-19T10:58:46.010Z,39.41
2018-09-19T11:01:15.080Z,39.74
2018-09-19T11:03:43.933Z,40.16
2018-09-19T11:06:12.584Z,39.63
2018-09-19T11:08:42.419Z,40.06
2018-09-19T11:11:11.100Z,39.12
2018-09-19T11:13:39.780Z,39.88
2018-09-19T11:16:08.495Z,39.47
2018-09-19T11:18:37.633Z,39.78
2018-09-19T11:21:11.819Z,38.16
2018-09-19T11:23:40.915Z,41.07
2018-09-19T11:26:09.709Z,39.78
2018-09-19T11:28:38.891Z,39.87
2018-09-19T11:31:07.692Z,41.80
2018-09-19T11:33:36.362Z,41.28
2018-09-19T11:36:05.015Z,40.37
2018-09-19T11:38:35.435Z,38.68
2018-09-19T11:41:04.104Z,39.08
2018-09-19T11:43:33.365Z,38.11
2018-09-19T11:46:01.979Z,37.43
2018-09-19T11:48:30.597Z,40.73
2018-09-19T11:50:59.493Z,39.31
2018-09-19T11:53:29.292Z,39.03
2018-09-19T11:56:00.793Z,37.93
2018-09-19T11:58:30.376Z,36.84
2018-09-19T12:00:59.471Z,38.55
2018-09-19T12:03:28.703Z,37.48
2018-09-19T12:05:58.189Z,36.24
2018-09-19T12:08:29.541Z,35.77
2018-09-19T12:10:58.242Z,35.97
2018-09-19T12:13:28.247Z,35.83
2018-09-19T12:15:56.862Z,36.13
2018-09-19T12:18:27.427Z,35.48
2018-09-19T12:20:56.189Z,35.76
2018-09-19T12:23:24.804Z,34.53
2018-09-19T12:25:53.432Z,35.45
2018-09-19T12:28:22.068Z,35.09
2018-09-19T12:30:50.705Z,34.45
2018-09-19T12:33:19.596Z,35.45
2018-09-19T12:35:49.852Z,36.34
2018-09-19T12:38:18.492Z,34.33
2018-09-19T12:40:47.141Z,35.81
2018-09-19T12:43:18.726Z,36.74
2018-09-19T12:45:47.327Z,36.68
2018-09-19T12:48:16.304Z,35.72
2018-09-19T12:50:45.144Z,35.39
2018-09-19T12:53:13.789Z,35.34
2018-09-19T12:55:42.508Z,34.27
2018-09-19T12:58:11.118Z,34.02
2018-09-19T13:00:43.629Z,33.75
2018-09-19T13:03:12.219Z,33.80
2018-09-19T13:05:41.857Z,34.43
2018-09-19T13:08:12.455Z,33.43
2018-09-19T13:10:41.108Z,32.84
2018-09-19T13:13:09.687Z,33.75
2018-09-19T13:15:38.500Z,35.39
2018-09-19T13:18:08.524Z,35.42
2018-09-19T13:20:37.156Z,34.33
2018-09-19T13:23:05.784Z,33.20
2018-09-19T13:25:34.646Z,32.43
2018-09-19T13:28:03.812Z,33.14
2018-09-19T13:30:32.779Z,33.40
2018-09-19T13:33:04.780Z,32.55
2018-09-19T13:35:33.547Z,33.74
2018-09-19T13:38:02.606Z,33.10
2018-09-19T13:40:31.464Z,34.70
2018-09-19T13:43:00.099Z,33.31
2018-09-19T13:45:31.313Z,32.96
2018-09-19T13:48:00.674Z,34.09
2018-09-19T13:50:41.358Z,34.58
2018-09-19T13:53:10.441Z,34.45
2018-09-19T13:55:39.432Z,33.89
2018-09-19T13:58:09.161Z,34.31
2018-09-19T14:00:37.778Z,36.34
2018-09-19T14:03:06.875Z,36.82
2018-09-19T14:05:36.017Z,35.93
2018-09-19T14:08:06.133Z,35.90
2018-09-19T14:10:36.145Z,36.05
2018-09-19T14:13:06.966Z,36.51
2018-09-19T14:15:36.040Z,37.03
2018-09-19T14:18:07.286Z,36.64
2018-09-19T14:20:36.119Z,36.75
2018-09-19T14:23:05.695Z,37.12
2018-09-19T14:25:36.791Z,36.77
2018-09-19T14:28:07.242Z,37.16
2018-09-19T14:30:36.252Z,36.81
2018-09-19T14:33:05.051Z,37.20
2018-09-19T14:35:34.010Z,38.25
2018-09-19T14:38:03.022Z,38.43
2018-09-19T14:40:34.861Z,39.76
2018-09-19T14:43:05.016Z,39.20
2018-09-19T14:45:33.847Z,39.19
2018-09-19T14:48:03.528Z,39.49
2018-09-19T14:50:32.684Z,40.12
2018-09-19T14:53:02.393Z,40.12
2018-09-19T14:55:33.327Z,40.89
2018-09-19T14:58:01.981Z,40.54
2018-09-19T15:00:30.764Z,41.17
2018-09-19T15:03:02.641Z,41.04
2018-09-19T15:05:32.665Z,41.25
2018-09-19T15:08:02.078Z,41.30
2018-09-19T15:10:31.723Z,41.60
2018-09-19T15:13:00.836Z,41.62
2018-09-19T15:15:30.032Z,42.01
2018-09-19T15:18:00.138Z,42.08
2018-09-19T15:20:31.266Z,42.15
2018-09-19T15:23:00.386Z,42.39
2018-09-19T15:25:30.019Z,42.34
2018-09-19T15:27:59.449Z,42.47
2018-09-19T15:30:31.208Z,43.44
2018-09-19T15:33:00.025Z,43.50
2018-09-19T15:35:29.111Z,43.50
2018-09-19T15:37:58.424Z,43.61
2018-09-19T15:40:27.514Z,43.33
2018-09-19T15:42:56.489Z,43.40
2018-09-19T15:45:25.395Z,43.38
2018-09-19T15:47:54.866Z,43.91
2018-09-19T15:50:23.908Z,44.27
2018-09-19T15:52:53.252Z,44.32
2018-09-19T15:55:22.235Z,44.30
2018-09-19T15:57:51.239Z,44.38
2018-09-19T16:00:20.128Z,44.27
2018-09-19T16:02:49.475Z,44.36
2018-09-19T16:05:18.997Z,44.92
2018-09-19T16:07:48.787Z,44.77
2018-09-19T16:10:17.585Z,44.76
2018-09-19T16:12:46.697Z,45.42
2018-09-19T16:15:17.336Z,45.28
2018-09-19T16:17:48.134Z,45.10
2018-09-19T16:20:17.024Z,45.66
2018-09-19T16:22:46.453Z,45.77
2018-09-19T16:25:15.307Z,46.12
2018-09-19T16:27:44.123Z,45.92
2018-09-19T16:30:12.913Z,46.01
2018-09-19T16:32:42.278Z,46.17
2018-09-19T16:35:11.509Z,46.29
2018-09-19T16:37:40.398Z,46.63
2018-09-19T16:40:09.505Z,47.17
2018-09-19T16:42:38.398Z,47.71
2018-09-19T16:45:07.619Z,47.39
2018-09-19T16:47:37.044Z,47.91
2018-09-19T16:50:06.409Z,47.94
2018-09-19T16:52:35.110Z,48.24
2018-09-19T16:55:04.096Z,48.48
2018-09-19T16:57:33.236Z,48.51
2018-09-19T17:00:01.849Z,49.42
2018-09-19T17:02:31.807Z,49.36
2018-09-19T17:05:00.671Z,49.74
2018-09-19T17:07:29.437Z,49.85
2018-09-19T17:09:58.167Z,50.06
2018-09-19T17:12:27.656Z,49.68
2018-09-19T17:14:56.435Z,49.91
2018-09-19T17:17:25.144Z,50.06
2018-09-19T17:19:53.788Z,50.09
2018-09-19T17:22:23.139Z,50.42
2018-09-19T17:24:52.001Z,50.87
2018-09-19T17:27:20.795Z,50.93
2018-09-19T17:29:49.706Z,51.12
2018-09-19T17:32:18.573Z,51.61
2018-09-19T17:34:47.406Z,51.76
2018-09-19T17:37:16.283Z,51.92
2018-09-19T17:39:44.926Z,52.30
2018-09-19T17:42:13.684Z,52.42
2018-09-19T17:44:43.302Z,52.37
2018-09-19T17:47:11.948Z,52.88
2018-09-19T17:49:40.907Z,53.42
2018-09-19T17:52:09.596Z,53.59
2018-09-19T17:54:38.827Z,54.04
2018-09-19T17:57:09.508Z,54.19
2018-09-19T17:59:38.898Z,54.34
2018-09-19T18:02:07.543Z,54.37
2018-09-19T18:04:36.593Z,54.76
2018-09-19T18:07:05.501Z,54.66
2018-09-19T18:09:34.135Z,55.44
2018-09-19T18:12:02.769Z,55.28
2018-09-19T18:14:31.512Z,55.28
2018-09-19T18:17:00.191Z,55.58
2018-09-19T18:19:29.624Z,55.87
2018-09-19T18:21:58.692Z,55.97
2018-09-19T18:24:28.006Z,56.36
2018-09-19T18:26:58.378Z,56.26
2018-09-19T18:29:28.088Z,56.73
2018-09-19T18:31:56.830Z,56.59
2018-09-19T18:34:26.260Z,56.86
2018-09-19T18:36:54.932Z,57.21
2018-09-19T18:39:23.559Z,57.23
2018-09-19T18:41:52.203Z,57.43
2018-09-19T18:44:20.841Z,57.59
2018-09-19T18:46:49.548Z,57.69
2018-09-19T18:49:18.207Z,57.25
2018-09-19T18:51:46.835Z,57.76
2018-09-19T18:54:19.731Z,57.63
2018-09-19T18:56:48.336Z,58.64
2018-09-19T18:59:16.988Z,58.59
2018-09-19T19:01:45.714Z,58.96
2018-09-19T19:04:14.354Z,58.40
2018-09-19T19:06:43.286Z,58.43
2018-09-19T19:09:12.719Z,58.28
2018-09-19T19:11:41.708Z,58.57
2018-09-19T19:14:10.911Z,58.42
2018-09-19T19:16:39.633Z,58.75
2018-09-19T19:19:09.069Z,59.06
2018-09-19T19:21:37.794Z,59.33
2018-09-19T19:24:06.478Z,59.04
2018-09-19T19:26:35.164Z,59.43
2018-09-19T19:29:04.212Z,59.70
2018-09-19T19:31:33.045Z,60.11
2018-09-19T19:34:01.656Z,60.30
2018-09-19T19:36:30.313Z,60.26
2018-09-19T19:38:59.007Z,59.71
2018-09-19T19:41:27.632Z,59.90
2018-09-19T19:43:56.328Z,60.13
2018-09-19T19:46:25.086Z,60.81
2018-09-19T19:48:53.762Z,61.12
2018-09-19T19:51:24.035Z,61.06
2018-09-19T19:53:52.707Z,61.32
2018-09-19T19:56:21.476Z,61.12
2018-09-19T19:58:50.142Z,61.65
2018-09-19T20:01:18.899Z,61.53
2018-09-19T20:03:47.695Z,61.28
2018-09-19T20:06:16.395Z,61.55
2018-09-19T20:08:45.041Z,61.39
2018-09-19T20:11:13.777Z,61.80
2018-09-19T20:13:42.602Z,62.19
2018-09-19T20:16:11.263Z,61.30
2018-09-19T20:18:39.994Z,61.55
2018-09-19T20:21:09.188Z,62.57
2018-09-19T20:23:37.863Z,62.10
2018-09-19T20:26:06.532Z,62.34
2018-09-19T20:28:36.053Z,62.27
2018-09-19T20:31:04.738Z,62.20
2018-09-19T20:33:33.424Z,62.40
2018-09-19T20:36:02.264Z,62.11
2018-09-19T20:38:31.038Z,61.79
2018-09-19T20:41:00.006Z,61.67
2018-09-19T20:43:28.711Z,61.36
2018-09-19T20:45:57.395Z,61.23
2018-09-19T20:48:26.176Z,60.75
2018-09-19T20:50:54.893Z,60.78
2018-09-19T20:53:23.654Z,60.07
2018-09-19T20:55:52.854Z,60.02
2018-09-19T20:58:21.825Z,59.72
2018-09-19T21:00:50.747Z,59.21
2018-09-19T21:03:19.404Z,58.79
2018-09-19T21:05:48.170Z,58.43
2018-09-19T21:08:16.864Z,58.49
2018-09-19T21:10:45.505Z,58.46
2018-09-19T21:13:14.192Z,58.56
2018-09-19T21:15:42.852Z,58.74
2018-09-19T21:18:11.819Z,58.91
2018-09-19T21:20:40.497Z,59.20
2018-09-19T21:23:09.153Z,59.40
2018-09-19T21:25:37.979Z,58.90
2018-09-19T21:28:06.588Z,59.20
2018-09-19T21:30:35.235Z,59.24
2018-09-19T21:33:03.911Z,59.32
2018-09-19T21:35:32.591Z,59.67
2018-09-19T21:38:01.265Z,59.46
2018-09-19T21:40:29.946Z,59.74
2018-09-19T21:42:58.638Z,59.67
2018-09-19T21:45:27.352Z,59.77
2018-09-19T21:47:56.319Z,59.85
2018-09-19T21:50:25.067Z,59.75
2018-09-19T21:52:54.389Z,59.79
2018-09-19T21:55:23.422Z,60.07
2018-09-19T21:57:52.438Z,59.78
2018-09-19T22:00:21.247Z,59.75
2018-09-19T22:02:49.927Z,59.81
2018-09-19T22:05:18.813Z,60.01
2018-09-19T22:07:47.463Z,60.56
2018-09-19T22:10:16.115Z,60.42
2018-09-19T22:12:44.737Z,60.89
2018-09-19T22:15:13.364Z,61.31
2018-09-19T22:17:41.987Z,61.10
2018-09-19T22:20:10.659Z,61.75
2018-09-19T22:22:39.417Z,62.24
2018-09-19T22:25:08.066Z,62.94
2018-09-19T22:27:36.729Z,63.27
2018-09-19T22:30:05.347Z,63.04
2018-09-19T22:32:34.040Z,63.59
2018-09-19T22:35:02.689Z,64.64
2018-09-19T22:37:31.322Z,64.65
2018-09-19T22:40:00.113Z,64.80
2018-09-19T22:42:28.780Z,65.09
2018-09-19T22:44:57.409Z,64.97
2018-09-19T22:47:26.048Z,65.66
2018-09-19T22:49:54.916Z,65.43
2018-09-19T22:52:23.570Z,65.73
2018-09-19T22:54:52.369Z,65.81
2018-09-19T22:57:21.016Z,65.54
2018-09-19T22:59:49.654Z,65.39
2018-09-19T23:02:18.348Z,65.34
2018-09-19T23:04:46.989Z,65.41
2018-09-19T23:07:15.641Z,65.32
2018-09-19T23:09:44.450Z,64.29
2018-09-19T23:12:13.283Z,64.08
2018-09-19T23:14:41.942Z,63.61
2018-09-19T23:17:12.155Z,62.31
2018-09-19T23:19:40.924Z,62.30
2018-09-19T23:22:10.099Z,61.92
2018-09-19T23:24:38.855Z,61.94
2018-09-19T23:27:07.607Z,61.61
2018-09-19T23:29:37.121Z,61.68
2018-09-19T23:32:07.082Z,61.56
2018-09-19T23:34:35.711Z,61.07
2018-09-19T23:37:04.364Z,61.61
2018-09-19T23:39:33.056Z,62.00
2018-09-19T23:42:01.734Z,61.84
2018-09-19T23:44:31.227Z,62.52
2018-09-19T23:47:01.193Z,62.99
2018-09-19T23:49:29.884Z,64.36
2018-09-19T23:51:58.516Z,64.58
2018-09-19T23:54:27.233Z,64.52
2018-09-19T23:56:55.868Z,64.26
2018-09-19T23:59:25.448Z,64.48
